Time;durP1;ratioP1;P1;durP2;ratioP2;P2;SDS_P1;SDS_P2;PMS_P1;PMS_P2;Temp;Humidity;BMP_temperature;BMP_pressure;BME280_temperature;BME280_humidity;BME280_pressure;Samples;Min_cycle;Max_cycle;Signal;HPM_P1;HPM_P2
2020/12/09 00:01:48;;;;;;;101.15;44.40;;;-0.10;99.90;;;;;;5096999;28;20020;-73
2020/12/09 00:04:14;;;;;;;91.75;41.92;;;-0.10;99.90;;;;;;5095973;28;20039;-74
2020/12/09 00:06:40;;;;;;;88.45;41.80;;;0.00;99.90;;;;;;5078283;28;20390;-74
2020/12/09 00:09:09;;;;;;;94.30;43.60;;;0.00;99.90;;;;;;5079194;28;20548;-73
2020/12/09 00:11:35;;;;;;;105.63;44.88;;;0.00;99.90;;;;;;5095373;28;20028;-73
2020/12/09 00:14:01;;;;;;;87.72;41.33;;;0.00;99.90;;;;;;5096426;28;20502;-74
2020/12/09 00:16:27;;;;;;;94.07;42.75;;;0.00;99.90;;;;;;5095023;28;20016;-73
2020/12/09 00:18:53;;;;;;;89.85;42.10;;;0.10;99.90;;;;;;5094977;28;20054;-73
2020/12/09 00:21:21;;;;;;;94.15;43.67;;;0.10;99.90;;;;;;5096601;28;20381;-73
2020/12/09 00:23:48;;;;;;;108.63;46.15;;;0.20;99.90;;;;;;5094740;28;20069;-74
2020/12/09 00:26:23;;;;;;;105.65;46.60;;;0.20;99.90;;;;;;5095355;28;20035;-74
2020/12/09 00:28:50;;;;;;;106.78;47.20;;;0.30;99.90;;;;;;5094650;28;20028;-73
2020/12/09 00:31:17;;;;;;;108.10;46.53;;;0.30;99.90;;;;;;5094720;28;20028;-74
2020/12/09 00:33:44;;;;;;;106.20;46.20;;;0.30;99.90;;;;;;5094847;28;20051;-73
2020/12/09 00:36:13;;;;;;;112.32;47.72;;;0.30;99.90;;;;;;5094507;28;20385;-73
2020/12/09 00:38:39;;;;;;;107.57;45.72;;;0.30;99.90;;;;;;5094585;28;20056;-73
2020/12/09 00:41:04;;;;;;;101.10;45.78;;;0.30;99.90;;;;;;5078392;28;20073;-74
2020/12/09 00:43:30;;;;;;;100.22;44.72;;;0.20;99.90;;;;;;5095010;28;20487;-74
2020/12/09 00:45:55;;;;;;;99.43;44.45;;;0.20;99.90;;;;;;5094621;28;20478;-73
2020/12/09 00:48:22;;;;;;;94.40;44.08;;;0.20;99.90;;;;;;5094624;28;20157;-74
2020/12/09 00:50:48;;;;;;;93.38;43.70;;;0.20;99.90;;;;;;5096040;28;20020;-73
2020/12/09 00:53:13;;;;;;;103.30;45.50;;;0.20;99.90;;;;;;5095891;28;20491;-73
2020/12/09 00:55:39;;;;;;;107.93;48.05;;;0.10;99.90;;;;;;5094113;28;20098;-73
2020/12/09 00:58:04;;;;;;;103.20;45.88;;;0.20;99.90;;;;;;5094484;28;20480;-74
2020/12/09 01:00:30;;;;;;;106.40;45.67;;;0.20;99.90;;;;;;5095883;28;20031;-73
2020/12/09 01:02:56;;;;;;;92.82;43.33;;;0.10;99.90;;;;;;5094344;28;20024;-74
2020/12/09 01:05:21;;;;;;;103.72;46.17;;;0.00;99.90;;;;;;5095756;28;20059;-73
2020/12/09 01:07:47;;;;;;;99.38;44.35;;;0.00;99.90;;;;;;5095571;28;20024;-73
2020/12/09 01:10:14;;;;;;;109.63;48.53;;;0.00;99.90;;;;;;5093977;28;20020;-73
2020/12/09 01:12:41;;;;;;;106.40;46.97;;;-0.10;99.90;;;;;;5077455;28;20085;-73
2020/12/09 01:15:08;;;;;;;95.72;42.72;;;-0.10;99.90;;;;;;5095632;28;20016;-75
2020/12/09 01:17:33;;;;;;;97.75;44.78;;;-0.10;99.90;;;;;;5095582;28;20016;-73
2020/12/09 01:19:59;;;;;;;99.10;43.95;;;-0.10;99.90;;;;;;5094337;28;20415;-73
2020/12/09 01:22:24;;;;;;;100.18;43.65;;;-0.10;99.90;;;;;;5095396;28;20024;-74
2020/12/09 01:24:50;;;;;;;110.07;47.17;;;-0.20;99.90;;;;;;5095115;28;20034;-72
2020/12/09 01:27:22;;;;;;;117.28;49.72;;;-0.10;99.90;;;;;;5095352;28;20020;-73
2020/12/09 01:29:48;;;;;;;109.50;47.60;;;-0.10;99.90;;;;;;5093825;28;20054;-73
2020/12/09 01:32:13;;;;;;;108.85;48.58;;;-0.10;99.90;;;;;;5093242;28;20508;-73
2020/12/09 01:34:39;;;;;;;120.70;50.40;;;-0.10;99.90;;;;;;5095168;28;20038;-73
2020/12/09 01:37:04;;;;;;;107.85;47.88;;;-0.20;99.90;;;;;;5093323;28;20052;-73
2020/12/09 01:39:30;;;;;;;117.80;51.17;;;-0.20;99.90;;;;;;5094089;28;20024;-74
2020/12/09 01:41:57;;;;;;;129.82;51.08;;;-0.20;99.90;;;;;;5076356;28;20020;-73
2020/12/09 01:44:23;;;;;;;126.10;51.35;;;-0.20;99.90;;;;;;5093242;28;20055;-74
2020/12/09 01:46:49;;;;;;;127.75;50.50;;;-0.20;99.90;;;;;;5094955;28;20020;-73
2020/12/09 01:49:16;;;;;;;129.27;49.30;;;-0.10;99.90;;;;;;5093095;28;20483;-72
2020/12/09 01:51:41;;;;;;;122.93;48.83;;;-0.20;99.90;;;;;;5094892;28;20103;-73
2020/12/09 01:54:07;;;;;;;114.45;47.42;;;-0.20;99.90;;;;;;5094596;28;20110;-73
2020/12/09 01:56:33;;;;;;;97.97;43.25;;;-0.10;99.90;;;;;;5094808;28;20035;-73
2020/12/09 01:58:58;;;;;;;100.85;46.05;;;-0.20;99.90;;;;;;5094225;28;20016;-74
2020/12/09 02:01:24;;;;;;;112.13;48.88;;;-0.20;99.90;;;;;;5093298;28;20043;-74
2020/12/09 02:03:51;;;;;;;110.55;47.65;;;-0.10;99.90;;;;;;5093745;28;20111;-74
2020/12/09 02:06:18;;;;;;;115.00;49.72;;;-0.10;99.90;;;;;;5094707;28;20024;-73
2020/12/09 02:08:45;;;;;;;115.15;50.72;;;-0.10;99.90;;;;;;5094370;28;20413;-74
2020/12/09 02:11:11;;;;;;;125.30;53.20;;;-0.10;99.90;;;;;;5094613;28;20016;-73
2020/12/09 02:13:45;;;;;;;118.95;49.42;;;-0.10;99.90;;;;;;5094202;28;20024;-74
2020/12/09 02:16:13;;;;;;;96.07;44.13;;;-0.10;99.90;;;;;;5094494;28;20026;-74
2020/12/09 02:18:41;;;;;;;106.85;48.88;;;-0.10;99.90;;;;;;5092779;28;20020;-73
2020/12/09 02:21:07;;;;;;;117.00;49.08;;;-0.10;99.90;;;;;;5092965;28;20020;-73
2020/12/09 02:23:32;;;;;;;105.20;47.58;;;-0.10;99.90;;;;;;5093237;28;20036;-73
2020/12/09 02:25:58;;;;;;;102.45;46.50;;;-0.10;99.90;;;;;;5092894;28;20413;-73
2020/12/09 02:28:23;;;;;;;98.68;47.25;;;-0.10;99.90;;;;;;5092627;28;20051;-73
2020/12/09 02:30:49;;;;;;;123.55;53.50;;;-0.10;99.90;;;;;;5094081;28;20534;-73
2020/12/09 02:33:15;;;;;;;101.60;48.42;;;-0.10;99.90;;;;;;5093495;28;20048;-72
2020/12/09 02:35:40;;;;;;;112.03;51.13;;;-0.10;99.90;;;;;;5093680;28;20466;-72
2020/12/09 02:38:06;;;;;;;102.95;48.28;;;0.00;99.90;;;;;;5094180;28;20020;-74
2020/12/09 02:40:31;;;;;;;111.55;49.85;;;0.00;99.90;;;;;;5093000;28;20017;-72
2020/12/09 02:42:57;;;;;;;107.75;47.58;;;-0.10;99.90;;;;;;5092865;28;20040;-73
2020/12/09 02:45:23;;;;;;;109.25;50.78;;;-0.10;99.90;;;;;;5092959;28;20120;-73
2020/12/09 02:47:49;;;;;;;112.45;51.35;;;0.00;99.90;;;;;;5093802;28;20016;-73
2020/12/09 02:50:15;;;;;;;114.03;52.20;;;0.00;99.90;;;;;;5092338;28;20024;-74
2020/12/09 02:52:40;;;;;;;114.93;50.42;;;0.00;99.90;;;;;;5092146;28;20081;-73
2020/12/09 02:55:06;;;;;;;108.97;51.28;;;0.00;99.90;;;;;;5093999;28;20042;-73
2020/12/09 02:57:31;;;;;;;118.30;52.88;;;0.00;99.90;;;;;;5092175;28;20359;-73
2020/12/09 02:59:57;;;;;;;115.63;53.10;;;0.00;99.90;;;;;;5092202;28;20032;-74
2020/12/09 03:02:22;;;;;;;113.53;52.03;;;0.10;99.90;;;;;;5075344;28;20024;-73
2020/12/09 03:04:48;;;;;;;114.05;52.58;;;0.10;99.90;;;;;;5092258;28;20055;-73
2020/12/09 03:07:13;;;;;;;104.55;50.33;;;0.10;99.90;;;;;;5075268;28;20101;-73
2020/12/09 03:09:39;;;;;;;112.65;51.03;;;0.10;99.90;;;;;;5093653;28;20055;-72
2020/12/09 03:12:05;;;;;;;110.95;50.28;;;0.10;99.90;;;;;;5091975;28;20127;-73
2020/12/09 03:14:30;;;;;;;119.07;54.22;;;0.10;99.90;;;;;;5075261;28;20074;-73
2020/12/09 03:16:56;;;;;;;112.28;51.90;;;0.10;99.90;;;;;;5092325;28;20045;-74
2020/12/09 03:19:21;;;;;;;115.38;52.55;;;0.10;99.90;;;;;;5093577;28;20031;-74
2020/12/09 03:21:47;;;;;;;106.15;50.80;;;0.10;99.90;;;;;;5092318;28;20027;-73
2020/12/09 03:24:13;;;;;;;111.38;51.38;;;0.10;99.90;;;;;;5092393;28;20372;-73
2020/12/09 03:26:38;;;;;;;120.90;53.88;;;0.10;99.90;;;;;;5092769;28;20024;-73
2020/12/09 03:29:04;;;;;;;115.20;51.78;;;0.10;99.90;;;;;;5091923;28;20035;-73
2020/12/09 03:31:30;;;;;;;114.55;51.55;;;0.10;99.90;;;;;;5095362;28;20040;-73
2020/12/09 03:33:55;;;;;;;121.78;54.60;;;0.10;99.90;;;;;;5079278;28;20380;-74
2020/12/09 03:36:21;;;;;;;128.88;55.22;;;0.10;99.90;;;;;;5096087;28;20031;-73
2020/12/09 03:38:47;;;;;;;120.95;54.15;;;0.10;99.90;;;;;;5095985;28;20025;-73
2020/12/09 03:41:12;;;;;;;122.68;54.78;;;0.20;99.90;;;;;;5097397;28;20024;-72
2020/12/09 03:43:38;;;;;;;120.28;53.53;;;0.20;99.90;;;;;;5097340;28;20081;-73
2020/12/09 03:46:03;;;;;;;110.68;51.60;;;0.20;99.90;;;;;;5097292;28;20055;-72
2020/12/09 03:48:29;;;;;;;128.50;55.47;;;0.20;99.90;;;;;;5096078;28;20350;-72
2020/12/09 03:50:55;;;;;;;111.13;53.45;;;0.20;99.90;;;;;;5095744;28;20035;-73
2020/12/09 03:53:21;;;;;;;115.07;50.63;;;0.30;99.90;;;;;;5095321;28;20024;-73
2020/12/09 03:55:48;;;;;;;113.53;51.38;;;0.30;99.90;;;;;;5097136;28;20107;-73
2020/12/09 03:58:14;;;;;;;123.32;54.55;;;0.30;99.90;;;;;;5095606;28;20020;-73
2020/12/09 04:00:40;;;;;;;121.07;54.30;;;0.30;99.90;;;;;;5096735;28;20421;-73
2020/12/09 04:03:06;;;;;;;114.75;51.17;;;0.30;99.90;;;;;;5097003;28;20024;-74
2020/12/09 04:05:31;;;;;;;118.22;52.72;;;0.30;99.90;;;;;;5095548;28;20138;-74
2020/12/09 04:07:57;;;;;;;104.18;50.40;;;0.30;99.90;;;;;;5096869;28;20023;-72
2020/12/09 04:10:22;;;;;;;111.60;53.08;;;0.30;99.90;;;;;;5096308;28;20444;-73
2020/12/09 04:12:48;;;;;;;113.20;55.05;;;0.30;99.90;;;;;;5094890;28;20024;-72
2020/12/09 04:15:13;;;;;;;122.63;52.83;;;0.30;99.90;;;;;;5096518;28;20031;-73
2020/12/09 04:17:39;;;;;;;108.22;51.92;;;0.30;99.90;;;;;;5096445;28;20104;-74
2020/12/09 04:20:07;;;;;;;112.55;52.03;;;0.30;99.90;;;;;;5078054;28;20111;-74
2020/12/09 04:22:33;;;;;;;117.63;54.67;;;0.40;99.90;;;;;;5096638;28;20465;-73
2020/12/09 04:24:59;;;;;;;118.00;53.60;;;0.50;99.90;;;;;;5094894;28;20031;-74
2020/12/09 04:27:24;;;;;;;113.32;54.10;;;0.50;99.90;;;;;;5096284;28;20028;-73
2020/12/09 04:29:50;;;;;;;110.93;51.92;;;0.40;99.90;;;;;;5096267;28;20082;-73
2020/12/09 04:32:16;;;;;;;109.28;52.65;;;0.40;99.90;;;;;;5094379;28;20044;-73
2020/12/09 04:34:41;;;;;;;115.20;53.03;;;0.50;99.90;;;;;;5096397;28;20109;-73
2020/12/09 04:37:09;;;;;;;117.60;52.88;;;0.50;99.90;;;;;;5096338;28;20450;-72
2020/12/09 04:39:35;;;;;;;126.05;55.17;;;0.50;99.90;;;;;;5096262;28;20028;-72
2020/12/09 04:42:00;;;;;;;121.57;54.03;;;0.50;99.90;;;;;;5094627;28;20099;-73
2020/12/09 04:44:26;;;;;;;128.35;54.65;;;0.50;99.90;;;;;;5095894;28;20028;-73
2020/12/09 04:46:53;;;;;;;115.03;52.30;;;0.50;99.90;;;;;;5094301;28;20024;-73
2020/12/09 04:49:23;;;;;;;127.88;54.00;;;0.50;99.90;;;;;;5096070;28;20024;-73
2020/12/09 04:52:20;;;;;;;114.90;53.17;;;0.50;99.90;;;;;;5096069;28;20446;-73
2020/12/09 04:54:48;;;;;;;119.57;53.65;;;0.60;99.90;;;;;;5095367;28;20016;-73
2020/12/09 04:57:41;;;;;;;122.70;54.00;;;0.50;99.90;;;;;;5095634;28;20051;-73
2020/12/09 05:00:08;;;;;;;118.35;52.30;;;0.50;99.90;;;;;;5095206;28;20016;-73
2020/12/09 05:02:53;;;;;;;133.52;56.95;;;0.60;99.90;;;;;;5095854;28;20473;-72
2020/12/09 05:05:21;;;;;;;143.07;57.42;;;0.60;99.90;;;;;;5094402;28;20378;-73
2020/12/09 05:07:50;;;;;;;137.25;58.80;;;0.80;99.90;;;;;;5095788;28;20024;-73
2020/12/09 05:10:18;;;;;;;131.65;59.00;;;0.80;99.90;;;;;;5095707;28;20024;-74
2020/12/09 05:12:46;;;;;;;135.52;57.38;;;0.90;99.90;;;;;;5095346;28;20020;-73
2020/12/09 05:15:17;;;;;;;130.60;55.90;;;0.90;99.90;;;;;;5095055;28;20039;-74
2020/12/09 05:18:05;;;;;;;140.77;58.92;;;0.80;99.90;;;;;;5095628;28;20069;-73
2020/12/09 05:20:34;;;;;;;139.68;58.53;;;0.80;99.90;;;;;;5095497;28;20392;-74
2020/12/09 05:23:01;;;;;;;146.80;61.83;;;0.80;99.90;;;;;;5095450;28;20024;-74
2020/12/09 05:25:28;;;;;;;150.60;63.10;;;0.80;99.90;;;;;;5095449;28;20016;-73
2020/12/09 05:27:54;;;;;;;144.85;58.97;;;0.80;99.90;;;;;;5094844;28;20028;-73
2020/12/09 05:30:48;;;;;;;139.82;57.40;;;0.80;99.90;;;;;;5094068;28;20028;-73
2020/12/09 05:33:17;;;;;;;139.52;57.97;;;0.80;99.90;;;;;;5093168;28;20067;-73
2020/12/09 05:35:53;;;;;;;124.93;55.03;;;0.80;99.90;;;;;;5094941;28;20035;-74
2020/12/09 05:38:19;;;;;;;145.32;57.80;;;0.80;99.90;;;;;;5095160;28;20031;-73
2020/12/09 05:40:47;;;;;;;136.82;59.70;;;0.80;99.90;;;;;;5094503;28;20095;-74
2020/12/09 05:43:14;;;;;;;127.18;55.08;;;0.80;99.90;;;;;;5094535;28;20024;-73
2020/12/09 05:45:41;;;;;;;142.70;55.90;;;0.80;99.90;;;;;;5094765;28;20111;-73
2020/12/09 05:48:24;;;;;;;137.27;55.70;;;0.80;99.90;;;;;;5094969;28;20024;-73
2020/12/09 05:50:56;;;;;;;128.77;55.70;;;0.80;99.90;;;;;;5094938;28;20029;-73
2020/12/09 05:53:24;;;;;;;135.52;57.67;;;0.80;99.90;;;;;;5092867;28;20021;-73
2020/12/09 05:55:54;;;;;;;135.27;55.13;;;0.80;99.90;;;;;;5093684;28;20020;-73
2020/12/09 05:58:22;;;;;;;135.88;57.28;;;0.80;99.90;;;;;;5093381;28;20021;-73
2020/12/09 06:01:13;;;;;;;139.25;55.85;;;0.70;99.90;;;;;;5094795;28;20046;-73
2020/12/09 06:03:41;;;;;;;133.10;56.10;;;0.70;99.90;;;;;;5092859;28;20035;-72
2020/12/09 06:09:03;;;;;;;152.10;60.63;;;0.70;99.90;;;;;;5112172;27;20351;-72
2020/12/09 06:11:32;;;;;;;155.75;60.60;;;0.80;99.90;;;;;;5111296;28;20024;-72
2020/12/09 06:13:58;;;;;;;145.02;59.97;;;0.80;99.90;;;;;;5111879;28;20012;-71
2020/12/09 06:16:24;;;;;;;143.70;59.03;;;0.70;99.90;;;;;;5111818;28;20068;-72
2020/12/09 06:18:52;;;;;;;136.20;60.22;;;0.80;99.90;;;;;;5110674;28;20023;-73
2020/12/09 06:21:19;;;;;;;137.38;57.60;;;0.80;99.90;;;;;;5111758;28;20047;-70
2020/12/09 06:23:45;;;;;;;139.10;56.97;;;0.90;99.90;;;;;;5110531;28;20028;-70
2020/12/09 06:26:11;;;;;;;134.63;58.40;;;0.80;99.90;;;;;;5111352;28;20016;-70
2020/12/09 06:28:42;;;;;;;138.27;57.08;;;0.80;99.90;;;;;;5110051;28;20107;-70
2020/12/09 06:31:12;;;;;;;129.45;56.53;;;0.80;99.90;;;;;;5109729;28;20043;-71
2020/12/09 06:33:41;;;;;;;133.90;56.97;;;0.80;99.90;;;;;;5110338;28;20068;-71
2020/12/09 06:36:27;;;;;;;130.07;55.50;;;0.80;99.90;;;;;;5110271;28;20472;-70
2020/12/09 06:39:15;;;;;;;124.07;56.60;;;0.80;99.90;;;;;;5110827;28;20028;-70
2020/12/09 06:44:47;;;;;;;126.93;54.80;;;0.80;99.90;;;;;;5091856;27;20398;-71
2020/12/09 06:47:12;;;;;;;123.38;54.63;;;0.80;99.90;;;;;;5091273;28;20032;-71
2020/12/09 06:49:40;;;;;;;118.68;52.25;;;0.80;99.90;;;;;;5091121;28;20025;-71
2020/12/09 06:54:48;;;;;;;124.57;53.33;;;0.80;99.90;;;;;;5112188;27;20347;-71
2020/12/09 06:57:32;;;;;;;134.05;58.20;;;0.80;99.90;;;;;;5111875;28;20035;-71
2020/12/09 07:00:19;;;;;;;128.40;55.97;;;0.70;99.90;;;;;;5111440;28;20016;-71
2020/12/09 07:02:47;;;;;;;129.88;55.55;;;0.70;99.90;;;;;;5110102;28;20074;-71
2020/12/09 07:05:15;;;;;;;117.70;52.40;;;0.70;99.90;;;;;;5090526;28;20054;-70
2020/12/09 07:08:01;;;;;;;116.68;54.85;;;0.70;99.90;;;;;;5097679;28;20027;-70
2020/12/09 07:10:29;;;;;;;112.28;50.40;;;0.60;99.90;;;;;;5101412;28;20511;-70
2020/12/09 07:13:06;;;;;;;124.35;53.28;;;0.60;99.90;;;;;;5101000;28;20077;-71
2020/12/09 07:15:31;;;;;;;126.90;55.03;;;0.60;99.90;;;;;;5098732;28;20470;-71
2020/12/09 07:17:57;;;;;;;129.85;55.40;;;0.60;99.90;;;;;;5098202;28;20386;-71
2020/12/09 07:20:23;;;;;;;131.18;57.35;;;0.60;99.90;;;;;;5100507;28;20094;-70
2020/12/09 07:22:49;;;;;;;119.90;54.55;;;0.70;99.90;;;;;;5099991;28;20031;-70
2020/12/09 07:25:14;;;;;;;126.22;55.65;;;0.70;99.90;;;;;;5100896;28;20023;-70
2020/12/09 07:27:40;;;;;;;127.45;54.03;;;0.80;99.90;;;;;;5098397;28;20035;-71
2020/12/09 07:30:09;;;;;;;115.30;51.50;;;0.80;99.90;;;;;;5098785;28;20409;-71
2020/12/09 07:32:35;;;;;;;121.63;52.85;;;0.80;99.90;;;;;;5124324;28;20028;-70
2020/12/09 07:35:07;;;;;;;114.18;50.88;;;0.90;99.90;;;;;;5130898;27;20077;-70
2020/12/09 07:37:38;;;;;;;116.55;49.33;;;0.90;99.90;;;;;;5130758;27;20020;-70
2020/12/09 07:40:17;;;;;;;112.55;50.58;;;0.90;99.90;;;;;;5107257;28;20015;-70
2020/12/09 07:42:42;;;;;;;122.03;51.25;;;0.90;99.90;;;;;;5126363;28;20035;-70
2020/12/09 07:45:10;;;;;;;122.68;53.67;;;0.80;99.90;;;;;;5096932;28;20089;-70
2020/12/09 07:47:36;;;;;;;130.38;52.45;;;0.80;99.90;;;;;;5098253;28;20032;-72
2020/12/09 07:50:05;;;;;;;118.97;51.53;;;0.80;99.90;;;;;;5081974;28;20038;-70
2020/12/09 07:52:34;;;;;;;123.07;51.03;;;0.80;99.90;;;;;;5099486;28;20031;-71
2020/12/09 07:55:02;;;;;;;122.90;51.60;;;0.90;99.90;;;;;;5100645;28;20027;-71
2020/12/09 07:57:31;;;;;;;125.40;52.10;;;0.80;99.90;;;;;;5100569;28;20045;-72
2020/12/09 07:59:57;;;;;;;125.03;52.05;;;0.90;99.90;;;;;;5097823;28;20023;-72
2020/12/09 08:02:25;;;;;;;120.53;50.55;;;0.90;99.90;;;;;;5097861;28;20047;-71
2020/12/09 08:05:12;;;;;;;120.88;52.28;;;0.90;99.90;;;;;;5093170;28;20358;-73
2020/12/09 08:07:54;;;;;;;141.35;54.88;;;0.90;99.90;;;;;;5085984;28;20447;-73
2020/12/09 08:10:30;;;;;;;131.75;52.53;;;0.90;99.90;;;;;;5067854;28;20081;-72
2020/12/09 08:13:07;;;;;;;126.95;49.90;;;0.90;99.90;;;;;;5068592;28;20502;-73
2020/12/09 08:15:35;;;;;;;117.75;49.35;;;0.90;99.90;;;;;;5084240;28;20111;-73
2020/12/09 08:18:01;;;;;;;117.65;49.75;;;0.90;99.90;;;;;;5086435;28;20016;-73
2020/12/09 08:20:27;;;;;;;117.68;49.30;;;0.90;99.90;;;;;;5085084;28;20964;-72
2020/12/09 08:22:55;;;;;;;128.50;51.95;;;0.90;99.90;;;;;;5085752;28;20028;-70
2020/12/09 08:25:22;;;;;;;114.60;49.15;;;1.00;99.90;;;;;;5085331;28;20068;-73
2020/12/09 08:27:48;;;;;;;110.55;47.88;;;1.10;99.90;;;;;;5085094;28;20437;-73
2020/12/09 08:30:19;;;;;;;100.97;46.80;;;1.30;99.90;;;;;;5081948;28;20024;-72
2020/12/09 08:32:55;;;;;;;104.70;46.58;;;1.50;99.90;;;;;;5084354;28;20078;-73
2020/12/09 08:35:21;;;;;;;100.72;44.42;;;1.40;99.90;;;;;;5067137;28;20508;-73
2020/12/09 08:37:47;;;;;;;101.50;45.08;;;1.40;99.90;;;;;;5083628;28;20024;-73
2020/12/09 08:40:12;;;;;;;109.88;44.47;;;1.30;99.90;;;;;;5084397;28;20020;-73
2020/12/09 08:42:38;;;;;;;97.57;43.58;;;1.10;99.90;;;;;;5084660;28;20055;-72
2020/12/09 08:45:04;;;;;;;104.90;46.38;;;1.10;99.90;;;;;;5084180;28;20055;-72
2020/12/09 08:47:29;;;;;;;111.47;49.25;;;1.00;99.90;;;;;;5085717;28;20069;-72
2020/12/09 08:49:55;;;;;;;123.43;53.78;;;1.00;99.90;;;;;;5085506;28;20563;-73
2020/12/09 08:52:20;;;;;;;108.88;46.75;;;1.10;99.90;;;;;;5087366;28;20377;-72
2020/12/09 08:54:46;;;;;;;106.47;45.72;;;1.00;99.90;;;;;;5093822;28;20502;-72
2020/12/09 08:57:11;;;;;;;98.30;44.30;;;1.10;99.90;;;;;;5094060;28;20020;-73
2020/12/09 08:59:37;;;;;;;93.82;43.78;;;1.20;99.90;;;;;;5093868;28;20024;-70
2020/12/09 09:02:02;;;;;;;89.40;41.40;;;1.30;99.90;;;;;;5090589;28;20081;-73
2020/12/09 09:04:32;;;;;;;90.28;41.95;;;1.40;99.90;;;;;;5091618;28;20081;-72
2020/12/09 09:06:57;;;;;;;87.78;40.78;;;1.40;99.90;;;;;;5094658;28;20028;-73
2020/12/09 09:09:23;;;;;;;89.55;40.85;;;1.50;99.90;;;;;;5095011;28;20161;-73
2020/12/09 09:11:49;;;;;;;90.28;43.63;;;1.50;99.90;;;;;;5060077;28;20036;-73
2020/12/09 09:14:15;;;;;;;89.47;42.63;;;1.50;99.90;;;;;;5076921;28;20504;-71
2020/12/09 09:16:41;;;;;;;80.65;40.60;;;1.50;99.90;;;;;;5092546;28;20012;-74
2020/12/09 09:19:06;;;;;;;85.05;40.92;;;1.50;99.90;;;;;;5094484;28;20024;-72
2020/12/09 09:21:34;;;;;;;89.03;42.60;;;1.60;99.90;;;;;;5093557;28;20019;-70
2020/12/09 09:23:59;;;;;;;82.63;40.85;;;1.70;99.90;;;;;;5095042;28;20028;-71
2020/12/09 09:26:27;;;;;;;74.95;36.83;;;1.80;99.90;;;;;;5094613;28;20435;-73
2020/12/09 09:28:52;;;;;;;73.95;36.55;;;1.80;99.90;;;;;;5094965;28;20099;-73
2020/12/09 09:31:18;;;;;;;72.60;36.47;;;1.90;99.90;;;;;;5094572;28;20165;-72
2020/12/09 09:33:44;;;;;;;68.70;36.33;;;2.00;99.90;;;;;;5094492;28;20027;-70
2020/12/09 09:36:09;;;;;;;67.88;35.95;;;2.00;99.90;;;;;;5093510;28;20116;-73
2020/12/09 09:38:35;;;;;;;68.22;35.20;;;2.10;99.90;;;;;;5094501;28;20521;-71
2020/12/09 09:41:01;;;;;;;66.97;35.60;;;2.10;99.90;;;;;;5094354;28;20020;-73
2020/12/09 09:43:26;;;;;;;66.93;36.25;;;2.30;99.90;;;;;;5093208;28;20028;-73
2020/12/09 09:45:52;;;;;;;63.75;32.58;;;2.30;99.90;;;;;;5094552;28;20477;-74
2020/12/09 09:48:17;;;;;;;67.65;35.10;;;2.40;99.90;;;;;;5092987;28;20024;-71
2020/12/09 09:50:43;;;;;;;67.22;34.22;;;2.40;99.90;;;;;;5094283;28;20516;-73
2020/12/09 09:53:08;;;;;;;72.90;36.08;;;2.40;99.90;;;;;;5094108;28;20120;-74
2020/12/09 09:55:34;;;;;;;82.55;37.97;;;2.40;99.90;;;;;;5093861;28;20032;-73
2020/12/09 09:58:00;;;;;;;80.32;39.53;;;2.50;99.90;;;;;;5092896;28;20027;-73
2020/12/09 10:00:25;;;;;;;73.63;37.80;;;2.60;99.90;;;;;;5093934;28;20024;-73
2020/12/09 10:02:51;;;;;;;81.57;39.13;;;2.50;99.90;;;;;;5092758;28;20077;-73
2020/12/09 10:05:17;;;;;;;76.00;40.05;;;2.50;99.90;;;;;;5094450;28;20107;-72
2020/12/09 10:07:42;;;;;;;73.45;37.28;;;2.60;99.90;;;;;;5094083;28;20484;-73
2020/12/09 10:10:10;;;;;;;71.30;38.20;;;2.60;99.90;;;;;;5093427;28;20059;-72
2020/12/09 10:12:35;;;;;;;73.70;38.80;;;2.70;99.90;;;;;;5091812;28;20047;-70
2020/12/09 10:15:01;;;;;;;83.72;41.40;;;2.50;99.90;;;;;;5091759;28;20488;-73
2020/12/09 10:17:26;;;;;;;80.30;40.78;;;2.70;99.90;;;;;;5093050;28;20024;-70
2020/12/09 10:19:52;;;;;;;84.55;42.08;;;2.70;99.90;;;;;;5092383;28;20020;-73
2020/12/09 10:22:18;;;;;;;81.72;40.95;;;2.80;99.90;;;;;;5093241;28;20423;-73
2020/12/09 10:24:43;;;;;;;86.80;41.90;;;2.80;99.90;;;;;;5093356;28;20028;-72
2020/12/09 10:27:09;;;;;;;87.05;41.63;;;2.80;99.90;;;;;;5093011;28;20024;-72
2020/12/09 10:29:34;;;;;;;89.97;44.58;;;2.90;99.90;;;;;;5092979;28;20411;-72
2020/12/09 10:32:00;;;;;;;82.63;43.47;;;2.90;99.90;;;;;;5092001;28;20078;-71
2020/12/09 10:34:25;;;;;;;98.25;46.25;;;3.00;99.90;;;;;;5092876;28;20028;-72
2020/12/09 10:36:52;;;;;;;92.00;46.72;;;3.10;99.90;;;;;;5093268;28;20016;-72
2020/12/09 10:39:20;;;;;;;84.00;45.00;;;3.20;99.90;;;;;;5093574;28;20091;-71
2020/12/09 10:41:46;;;;;;;88.93;47.95;;;3.30;99.90;;;;;;5092083;28;20020;-73
2020/12/09 10:44:12;;;;;;;88.30;44.40;;;3.40;99.90;;;;;;5092525;28;20024;-72
2020/12/09 10:46:38;;;;;;;94.65;46.03;;;3.40;99.90;;;;;;5091705;28;20469;-73
2020/12/09 10:49:05;;;;;;;86.75;45.45;;;3.40;99.90;;;;;;5091952;28;20114;-73
2020/12/09 10:51:31;;;;;;;88.70;44.60;;;3.40;99.90;;;;;;5093393;28;20024;-73
2020/12/09 10:53:58;;;;;;;85.13;44.88;;;3.40;99.90;;;;;;5091800;28;20562;-73
2020/12/09 10:56:26;;;;;;;90.50;46.50;;;3.40;99.90;;;;;;5093544;28;20362;-73
2020/12/09 10:58:52;;;;;;;91.70;47.75;;;3.40;99.90;;;;;;5093112;28;20027;-73
2020/12/09 11:01:19;;;;;;;99.55;48.28;;;3.50;99.90;;;;;;5091931;28;20127;-73
2020/12/09 11:03:45;;;;;;;104.68;49.85;;;3.50;99.90;;;;;;5092978;28;20095;-73
2020/12/09 11:06:11;;;;;;;91.05;47.63;;;3.50;99.90;;;;;;5093141;28;20024;-73
2020/12/09 11:08:37;;;;;;;97.72;48.42;;;3.60;99.90;;;;;;5075111;28;20028;-73
2020/12/09 11:11:02;;;;;;;101.82;51.05;;;3.60;99.90;;;;;;5092679;28;20051;-73
2020/12/09 11:13:28;;;;;;;99.65;50.55;;;3.70;99.90;;;;;;5092793;28;20035;-73
2020/12/09 11:15:53;;;;;;;99.78;50.05;;;3.80;99.90;;;;;;5091870;28;20111;-73
2020/12/09 11:18:19;;;;;;;96.65;49.95;;;3.90;99.90;;;;;;5093051;28;20025;-74
2020/12/09 11:20:44;;;;;;;99.15;50.55;;;3.80;99.90;;;;;;5091594;28;20119;-72
2020/12/09 11:23:12;;;;;;;98.28;47.95;;;3.90;99.90;;;;;;5092620;28;20388;-73
2020/12/09 11:25:38;;;;;;;92.75;47.25;;;4.00;99.90;;;;;;5091741;28;20433;-73
2020/12/09 11:28:04;;;;;;;96.93;48.38;;;4.00;99.90;;;;;;5091674;28;20090;-73
2020/12/09 11:30:29;;;;;;;94.20;47.17;;;4.00;99.90;;;;;;5091692;28;20074;-73
2020/12/09 11:32:55;;;;;;;100.18;49.70;;;4.00;99.90;;;;;;5091566;28;20034;-73
2020/12/09 11:35:20;;;;;;;103.35;48.65;;;3.90;99.90;;;;;;5092561;28;20020;-74
2020/12/09 11:37:46;;;;;;;99.22;48.80;;;3.90;99.90;;;;;;5091658;28;20107;-71
2020/12/09 11:40:11;;;;;;;105.90;50.58;;;3.90;99.90;;;;;;5093778;28;20032;-73
2020/12/09 11:42:38;;;;;;;110.75;51.10;;;3.80;99.90;;;;;;5078552;28;20074;-73
2020/12/09 11:45:05;;;;;;;106.38;51.90;;;3.70;99.90;;;;;;5096721;28;20377;-71
2020/12/09 11:47:31;;;;;;;104.45;50.10;;;3.70;99.90;;;;;;5078267;28;20086;-75
2020/12/09 11:49:57;;;;;;;117.07;52.80;;;3.80;99.90;;;;;;5095371;28;20012;-72
2020/12/09 11:52:23;;;;;;;114.95;51.05;;;3.70;99.90;;;;;;5096323;28;20035;-71
2020/12/09 11:54:48;;;;;;;123.28;53.38;;;3.60;99.90;;;;;;5095179;28;20024;-72
2020/12/09 11:57:14;;;;;;;123.38;55.28;;;3.60;99.90;;;;;;5095244;28;20031;-74
2020/12/09 11:59:39;;;;;;;126.30;54.50;;;3.60;99.90;;;;;;5078490;28;20419;-72
2020/12/09 12:02:06;;;;;;;116.38;53.45;;;3.60;99.90;;;;;;5095579;28;20020;-74
2020/12/09 12:04:31;;;;;;;121.38;55.40;;;3.60;99.90;;;;;;5096105;28;20103;-72
2020/12/09 12:06:57;;;;;;;112.97;51.67;;;3.60;99.90;;;;;;5096094;28;20366;-72
2020/12/09 12:09:38;;;;;;;121.45;53.78;;;3.70;99.90;;;;;;5095871;28;20050;-73
2020/12/09 12:12:03;;;;;;;122.55;54.13;;;3.70;99.90;;;;;;5094832;28;20046;-73
2020/12/09 12:14:29;;;;;;;126.43;55.60;;;3.80;99.90;;;;;;5094204;28;20024;-73
2020/12/09 12:16:54;;;;;;;121.25;51.78;;;3.90;99.90;;;;;;5096124;28;20032;-72
2020/12/09 12:19:20;;;;;;;113.03;50.40;;;3.90;99.90;;;;;;5092079;28;20020;-73
2020/12/09 12:21:48;;;;;;;121.70;50.75;;;4.00;99.90;;;;;;5084139;28;20416;-74
2020/12/09 12:24:14;;;;;;;117.53;50.72;;;4.10;99.90;;;;;;5085395;28;20028;-74
2020/12/09 12:26:39;;;;;;;117.05;51.22;;;4.00;99.90;;;;;;5085040;28;20085;-74
2020/12/09 12:29:05;;;;;;;118.15;50.42;;;4.00;99.90;;;;;;5093709;28;20066;-74
2020/12/09 12:31:30;;;;;;;121.75;50.28;;;4.00;99.90;;;;;;5095134;28;20481;-73
2020/12/09 12:33:56;;;;;;;120.93;51.30;;;4.00;99.90;;;;;;5093468;28;20136;-72
2020/12/09 12:36:22;;;;;;;115.95;49.28;;;3.90;99.90;;;;;;5095619;28;20028;-73
2020/12/09 12:38:47;;;;;;;122.15;50.13;;;3.90;99.90;;;;;;5094493;28;20024;-73